createdAt,value
2017-10-29T00:02:00.543Z,6.10
2017-10-29T00:04:28.847Z,7.83
2017-10-29T00:06:57.182Z,7.20
2017-10-29T00:09:25.477Z,8.50
2017-10-29T00:11:53.787Z,6.73
2017-10-29T00:14:22.088Z,6.37
2017-10-29T00:16:50.439Z,5.90
2017-10-29T00:19:18.740Z,5.63
2017-10-29T00:21:47.052Z,5.70
2017-10-29T00:24:16.110Z,5.73
2017-10-29T00:26:44.472Z,5.60
2017-10-29T00:29:12.768Z,6.10
2017-10-29T00:31:41.079Z,7.60
2017-10-29T00:34:09.388Z,7.67
2017-10-29T00:36:37.683Z,8.10
2017-10-29T00:39:06.014Z,9.83
2017-10-29T00:41:35.078Z,9.43
2017-10-29T00:44:03.404Z,9.57
2017-10-29T00:46:31.708Z,8.60
2017-10-29T00:49:00.022Z,7.77
2017-10-29T00:51:28.318Z,8.33
2017-10-29T00:53:56.685Z,9.57
2017-10-29T00:56:25.004Z,6.30
2017-10-29T00:58:53.295Z,5.87
2017-10-29T01:01:21.602Z,4.87
2017-10-29T01:03:50.693Z,5.80
2017-10-29T01:06:19.038Z,8.00
2017-10-29T01:08:47.334Z,7.70
2017-10-29T01:11:15.671Z,7.93
2017-10-29T01:13:43.974Z,7.37
2017-10-29T01:16:12.304Z,8.50
2017-10-29T01:18:40.627Z,8.00
2017-10-29T01:21:08.972Z,8.50
2017-10-29T01:23:37.271Z,6.93
2017-10-29T01:26:05.612Z,8.10
2017-10-29T01:28:33.928Z,7.10
2017-10-29T01:31:02.223Z,5.73
2017-10-29T01:33:30.546Z,7.20
2017-10-29T01:35:59.607Z,7.40
2017-10-29T01:38:27.944Z,8.13
2017-10-29T01:40:56.227Z,7.77
2017-10-29T01:43:24.539Z,6.87
2017-10-29T01:45:52.821Z,5.60
2017-10-29T01:48:21.157Z,6.10
2017-10-29T01:50:49.467Z,5.93
2017-10-29T01:53:18.556Z,7.00
2017-10-29T01:55:46.876Z,5.43
2017-10-29T01:58:15.938Z,6.80
2017-10-29T02:00:44.256Z,6.13
2017-10-29T02:03:12.546Z,6.10
2017-10-29T02:05:40.871Z,7.20
2017-10-29T02:08:09.183Z,7.33
2017-10-29T02:10:37.534Z,6.10
2017-10-29T02:13:05.812Z,6.47
2017-10-29T02:15:34.912Z,6.20
2017-10-29T02:18:03.973Z,7.73
2017-10-29T02:20:32.268Z,6.80
2017-10-29T02:23:00.590Z,8.70
2017-10-29T02:25:28.891Z,9.23
2017-10-29T02:27:57.199Z,7.37
2017-10-29T02:30:25.496Z,6.90
2017-10-29T02:32:54.570Z,7.90
2017-10-29T02:35:23.645Z,6.60
2017-10-29T02:37:51.982Z,7.13
2017-10-29T02:40:20.294Z,6.03
2017-10-29T02:42:48.623Z,7.00
2017-10-29T02:45:17.673Z,5.90
2017-10-29T02:47:46.756Z,6.17
2017-10-29T02:50:15.075Z,4.63
2017-10-29T02:52:44.150Z,6.23
2017-10-29T02:55:12.474Z,5.67
2017-10-29T02:57:40.781Z,10.60
2017-10-29T03:00:09.195Z,8.27
2017-10-29T03:02:38.262Z,9.10
2017-10-29T03:05:06.658Z,6.53
2017-10-29T03:07:35.723Z,5.87
2017-10-29T03:10:04.044Z,6.03
2017-10-29T03:12:33.112Z,6.70
2017-10-29T03:15:01.452Z,6.93
2017-10-29T03:17:29.738Z,7.63
2017-10-29T03:19:58.093Z,8.93
2017-10-29T03:22:26.395Z,9.57
2017-10-29T03:24:54.719Z,8.73
2017-10-29T03:27:23.803Z,9.87
2017-10-29T03:29:52.879Z,9.93
2017-10-29T03:32:21.279Z,9.80
2017-10-29T03:34:50.378Z,9.50
2017-10-29T03:37:18.715Z,10.13
2017-10-29T03:39:47.034Z,11.63
2017-10-29T03:42:16.132Z,11.73
2017-10-29T03:44:44.447Z,10.23
2017-10-29T03:47:12.884Z,7.67
2017-10-29T03:49:42.345Z,9.43
2017-10-29T03:52:10.668Z,7.23
2017-10-29T03:54:40.553Z,5.57
2017-10-29T03:57:08.857Z,6.57
2017-10-29T03:59:38.054Z,5.00
2017-10-29T04:02:06.436Z,5.50
2017-10-29T04:04:35.607Z,7.10
2017-10-29T04:07:03.915Z,6.47
2017-10-29T04:09:33.014Z,6.80
2017-10-29T04:12:01.322Z,6.03
2017-10-29T04:14:29.648Z,9.07
2017-10-29T04:16:58.713Z,7.10
2017-10-29T04:19:27.046Z,7.50
2017-10-29T04:21:55.363Z,7.07
2017-10-29T04:24:23.667Z,7.27
2017-10-29T04:26:52.760Z,7.97
2017-10-29T04:29:21.141Z,9.23
2017-10-29T04:31:50.246Z,7.50
2017-10-29T04:34:19.296Z,8.30
2017-10-29T04:36:47.626Z,9.33
2017-10-29T04:39:15.910Z,9.60
2017-10-29T04:41:44.246Z,11.00
2017-10-29T04:44:12.549Z,10.60
2017-10-29T04:46:40.871Z,10.17
2017-10-29T04:49:09.155Z,8.43
2017-10-29T04:51:37.467Z,9.30
2017-10-29T04:54:06.538Z,10.10
2017-10-29T04:56:35.038Z,10.53
2017-10-29T04:59:04.136Z,10.57
2017-10-29T05:01:33.230Z,10.17
2017-10-29T05:04:02.322Z,11.40
2017-10-29T05:06:31.386Z,8.17
2017-10-29T05:08:59.908Z,11.47
2017-10-29T05:11:29.004Z,13.43
2017-10-29T05:13:58.105Z,10.37
2017-10-29T05:16:26.394Z,9.67
2017-10-29T05:18:54.866Z,10.40
2017-10-29T05:21:23.195Z,10.23
2017-10-29T05:23:51.516Z,9.97
2017-10-29T05:26:19.845Z,8.47
2017-10-29T05:28:48.256Z,9.97
2017-10-29T05:31:17.347Z,9.33
2017-10-29T05:33:46.407Z,8.83
2017-10-29T05:36:15.524Z,9.87
2017-10-29T05:38:43.833Z,9.40
2017-10-29T05:41:12.183Z,10.37
2017-10-29T05:43:41.285Z,10.50
2017-10-29T05:46:10.383Z,7.70
2017-10-29T05:48:39.443Z,8.90
2017-10-29T05:51:07.851Z,9.30
2017-10-29T05:53:36.910Z,8.57
2017-10-29T05:56:05.207Z,7.53
2017-10-29T05:58:33.523Z,8.70
2017-10-29T06:01:01.851Z,7.00
2017-10-29T06:03:30.152Z,9.50
2017-10-29T06:05:59.203Z,8.20
2017-10-29T06:08:27.520Z,8.37
2017-10-29T06:10:55.860Z,9.57
2017-10-29T06:13:24.288Z,12.03
2017-10-29T06:15:52.564Z,11.00
2017-10-29T06:18:21.946Z,12.43
2017-10-29T06:20:51.028Z,12.87
2017-10-29T06:23:19.318Z,10.80
2017-10-29T06:25:47.645Z,13.73
2017-10-29T06:28:15.939Z,11.70
2017-10-29T06:30:44.264Z,10.60
2017-10-29T06:33:13.870Z,9.17
2017-10-29T06:35:42.960Z,10.30
2017-10-29T06:38:12.023Z,8.47
2017-10-29T06:40:40.349Z,9.50
2017-10-29T06:43:08.647Z,9.90
2017-10-29T06:45:36.967Z,10.87
2017-10-29T06:48:05.274Z,10.60
2017-10-29T06:50:33.594Z,10.90
2017-10-29T06:53:01.890Z,8.30
2017-10-29T06:55:30.192Z,11.03
2017-10-29T06:57:59.270Z,10.27
2017-10-29T07:00:28.342Z,10.57
2017-10-29T07:02:56.675Z,10.27
2017-10-29T07:05:24.981Z,9.17
2017-10-29T07:07:53.332Z,9.10
2017-10-29T07:10:21.687Z,10.87
2017-10-29T07:12:50.795Z,11.47
2017-10-29T07:15:19.843Z,9.50
2017-10-29T07:17:48.157Z,10.47
2017-10-29T07:20:16.464Z,9.40
2017-10-29T07:22:44.758Z,10.63
2017-10-29T07:25:13.079Z,10.00
2017-10-29T07:27:41.359Z,8.93
2017-10-29T07:30:10.443Z,8.20
2017-10-29T07:32:39.549Z,10.20
2017-10-29T07:35:07.867Z,10.67
2017-10-29T07:37:36.181Z,8.13
2017-10-29T07:40:04.479Z,10.80
2017-10-29T07:42:33.534Z,9.80
2017-10-29T07:45:01.854Z,9.03
2017-10-29T07:47:30.912Z,10.10
2017-10-29T07:49:59.247Z,10.03
2017-10-29T07:52:27.555Z,11.77
2017-10-29T07:54:56.019Z,9.60
2017-10-29T07:57:24.323Z,11.17
2017-10-29T07:59:52.661Z,10.33
2017-10-29T08:02:21.056Z,12.63
2017-10-29T08:04:49.356Z,9.53
2017-10-29T08:07:17.682Z,10.37
2017-10-29T08:09:45.971Z,9.80
2017-10-29T08:12:14.280Z,15.17
2017-10-29T08:14:42.581Z,8.57
2017-10-29T08:17:10.987Z,10.07
2017-10-29T08:19:39.284Z,9.77
2017-10-29T08:22:07.765Z,10.27
2017-10-29T08:24:36.126Z,10.33
2017-10-29T08:27:04.465Z,8.80
2017-10-29T08:29:33.549Z,9.77
2017-10-29T08:32:01.945Z,8.90
2017-10-29T08:34:31.038Z,8.80
2017-10-29T08:36:59.352Z,9.47
2017-10-29T08:39:27.651Z,9.20
2017-10-29T08:41:55.986Z,8.67
2017-10-29T08:44:24.355Z,8.40
2017-10-29T08:46:52.726Z,9.87
2017-10-29T08:49:21.055Z,8.03
2017-10-29T08:51:49.346Z,10.17
2017-10-29T08:54:17.686Z,8.20
2017-10-29T08:56:45.975Z,10.10
2017-10-29T08:59:14.291Z,7.60
2017-10-29T09:01:42.676Z,8.37
2017-10-29T09:04:11.027Z,8.30
2017-10-29T09:06:39.327Z,7.50
2017-10-29T09:09:08.427Z,8.10
2017-10-29T09:11:37.495Z,6.27
2017-10-29T09:14:05.930Z,5.40
2017-10-29T09:16:34.988Z,5.57
2017-10-29T09:19:03.274Z,5.53
2017-10-29T09:21:31.575Z,4.93
2017-10-29T09:23:59.893Z,5.53
2017-10-29T09:26:28.195Z,5.03
2017-10-29T09:28:56.473Z,5.90
2017-10-29T09:31:25.589Z,5.53
2017-10-29T09:33:54.638Z,5.37
2017-10-29T09:36:22.955Z,5.90
2017-10-29T09:38:51.227Z,4.83
2017-10-29T09:41:20.406Z,4.27
2017-10-29T09:43:49.507Z,5.00
2017-10-29T09:46:18.628Z,4.23
2017-10-29T09:48:46.916Z,5.70
2017-10-29T09:51:15.303Z,4.90
2017-10-29T09:53:43.598Z,4.33
2017-10-29T09:56:11.895Z,4.30
2017-10-29T09:58:40.188Z,5.63
2017-10-29T10:01:08.455Z,5.30
2017-10-29T10:03:36.756Z,6.80
2017-10-29T10:06:05.794Z,6.40
2017-10-29T10:08:34.101Z,4.53
2017-10-29T10:11:02.428Z,5.20
2017-10-29T10:13:30.690Z,5.63
2017-10-29T10:15:59.784Z,4.73
2017-10-29T10:18:28.059Z,4.40
2017-10-29T10:20:56.368Z,4.97
2017-10-29T10:23:24.647Z,4.73
2017-10-29T10:25:52.991Z,5.60
2017-10-29T10:28:21.293Z,5.53
2017-10-29T10:30:49.602Z,6.30
2017-10-29T10:33:17.894Z,5.50
2017-10-29T10:35:46.992Z,4.00
2017-10-29T10:38:16.039Z,3.90
2017-10-29T10:40:44.363Z,5.00
2017-10-29T10:43:12.634Z,5.70
2017-10-29T10:45:41.700Z,5.97
2017-10-29T10:48:10.035Z,5.50
2017-10-29T10:50:38.330Z,4.83
2017-10-29T10:53:06.656Z,5.23
2017-10-29T10:55:35.709Z,4.73
2017-10-29T10:58:04.034Z,5.47
2017-10-29T11:00:33.083Z,6.00
2017-10-29T11:03:01.518Z,5.43
2017-10-29T11:05:30.566Z,4.87
2017-10-29T11:07:58.895Z,5.50
2017-10-29T11:10:27.202Z,5.53
2017-10-29T11:12:55.517Z,6.63
2017-10-29T11:15:23.794Z,7.50
2017-10-29T11:17:52.120Z,5.93
2017-10-29T11:20:20.404Z,5.80
2017-10-29T11:22:48.742Z,5.80
2017-10-29T11:25:17.023Z,5.07
2017-10-29T11:27:45.363Z,5.83
2017-10-29T11:30:13.676Z,6.00
2017-10-29T11:32:42.739Z,5.20
2017-10-29T11:35:11.036Z,7.67
2017-10-29T11:37:40.089Z,6.03
2017-10-29T11:40:08.427Z,7.87
2017-10-29T11:42:36.718Z,9.07
2017-10-29T11:45:05.070Z,6.60
2017-10-29T11:47:33.439Z,8.40
2017-10-29T11:50:01.785Z,8.30
2017-10-29T11:52:30.068Z,8.37
2017-10-29T11:54:58.382Z,9.00
2017-10-29T11:57:27.453Z,8.40
2017-10-29T11:59:55.736Z,7.50
2017-10-29T12:02:24.825Z,8.77
2017-10-29T12:04:53.110Z,8.77
2017-10-29T12:07:22.196Z,11.30
2017-10-29T12:09:51.269Z,8.27
2017-10-29T12:12:19.623Z,7.00
2017-10-29T12:14:47.942Z,7.60
2017-10-29T12:17:17.063Z,6.93
2017-10-29T12:19:45.351Z,6.97
2017-10-29T12:22:13.664Z,8.47
2017-10-29T12:24:41.970Z,7.30
2017-10-29T12:27:11.048Z,9.03
2017-10-29T12:29:39.374Z,8.20
2017-10-29T12:32:09.370Z,10.40
2017-10-29T12:34:39.222Z,6.60
2017-10-29T12:37:09.044Z,7.17
2017-10-29T12:39:38.914Z,6.73
2017-10-29T12:42:08.822Z,7.97
2017-10-29T12:44:39.072Z,7.13
2017-10-29T12:47:08.907Z,8.90
2017-10-29T12:49:38.771Z,8.03
2017-10-29T12:52:08.606Z,7.83
2017-10-29T12:54:38.418Z,11.10
2017-10-29T12:57:08.314Z,9.33
2017-10-29T12:59:38.127Z,9.67
2017-10-29T13:02:07.986Z,7.67
2017-10-29T13:04:37.804Z,7.70
2017-10-29T13:07:07.644Z,9.07
2017-10-29T13:09:37.495Z,8.20
2017-10-29T13:12:07.347Z,6.10
2017-10-29T13:14:37.178Z,5.13
2017-10-29T13:17:07.035Z,5.30
2017-10-29T13:19:36.907Z,6.10
2017-10-29T13:22:06.735Z,4.97
2017-10-29T13:24:36.584Z,6.37
2017-10-29T13:27:06.417Z,5.90
2017-10-29T13:29:36.262Z,5.10
2017-10-29T13:32:06.190Z,5.60
2017-10-29T13:34:36.026Z,5.33
2017-10-29T13:37:05.866Z,6.23
2017-10-29T13:39:35.815Z,5.93
2017-10-29T13:42:05.722Z,5.27
2017-10-29T13:44:35.602Z,4.53
2017-10-29T13:47:05.429Z,5.70
2017-10-29T13:49:35.377Z,6.10
2017-10-29T13:52:05.233Z,6.27
2017-10-29T13:54:35.113Z,5.27
2017-10-29T13:57:05.010Z,4.87
2017-10-29T13:59:34.934Z,5.53
2017-10-29T14:02:04.760Z,5.17
2017-10-29T14:04:34.577Z,6.20
2017-10-29T14:07:04.440Z,6.90
2017-10-29T14:09:34.274Z,7.07
2017-10-29T14:12:04.115Z,5.33
2017-10-29T14:14:33.928Z,5.63
2017-10-29T14:17:03.765Z,5.93
2017-10-29T14:19:33.643Z,5.17
2017-10-29T14:22:03.472Z,7.57
2017-10-29T14:24:33.354Z,7.10
2017-10-29T14:27:03.183Z,5.37
2017-10-29T14:29:33.048Z,5.37
2017-10-29T14:32:02.883Z,5.80
2017-10-29T14:34:32.714Z,7.43
2017-10-29T14:37:02.526Z,6.53
2017-10-29T14:39:32.470Z,6.00
2017-10-29T14:42:02.268Z,7.27
2017-10-29T14:44:32.116Z,5.37
2017-10-29T14:47:01.944Z,5.33
2017-10-29T14:49:31.845Z,4.90
2017-10-29T14:52:01.674Z,4.43
2017-10-29T14:54:31.494Z,3.63
2017-10-29T14:57:01.343Z,4.70
2017-10-29T14:59:31.202Z,5.27
2017-10-29T15:02:01.083Z,3.60
2017-10-29T15:04:30.903Z,4.23
2017-10-29T15:07:00.755Z,4.33
2017-10-29T15:09:30.583Z,4.70
2017-10-29T15:12:00.462Z,5.00
2017-10-29T15:14:30.286Z,4.87
2017-10-29T15:17:00.153Z,5.13
2017-10-29T15:19:30.128Z,4.13
2017-10-29T15:21:59.967Z,5.00
2017-10-29T15:24:29.846Z,5.10
2017-10-29T15:26:59.695Z,5.37
2017-10-29T15:29:29.548Z,5.27
2017-10-29T15:31:59.379Z,4.27
2017-10-29T15:34:29.254Z,4.50
2017-10-29T15:36:59.077Z,6.60
2017-10-29T15:39:29.019Z,6.03
2017-10-29T15:41:58.867Z,4.53
2017-10-29T15:44:28.763Z,8.57
2017-10-29T15:46:58.614Z,5.90
2017-10-29T15:49:28.466Z,4.60
2017-10-29T15:51:58.400Z,5.13
2017-10-29T15:54:28.274Z,6.23
2017-10-29T15:56:58.094Z,6.03
2017-10-29T15:59:28.030Z,5.57
2017-10-29T16:01:57.878Z,7.20
2017-10-29T16:04:27.786Z,6.57
2017-10-29T16:06:57.654Z,6.03
2017-10-29T16:09:27.515Z,5.20
2017-10-29T16:11:57.333Z,5.77
2017-10-29T16:14:27.194Z,6.57
2017-10-29T16:16:56.998Z,5.97
2017-10-29T16:19:26.971Z,4.53
2017-10-29T16:21:56.816Z,5.87
2017-10-29T16:24:26.770Z,5.10
2017-10-29T16:26:56.596Z,4.97
2017-10-29T16:29:26.493Z,6.80
2017-10-29T16:31:56.422Z,7.73
2017-10-29T16:34:26.522Z,9.57
2017-10-29T16:36:56.378Z,6.27
2017-10-29T16:39:26.251Z,9.93
2017-10-29T16:41:56.189Z,7.63
2017-10-29T16:44:26.034Z,5.60
2017-10-29T16:46:56.094Z,6.37
2017-10-29T16:49:25.992Z,9.37
2017-10-29T16:51:55.923Z,6.30
2017-10-29T16:54:25.815Z,9.00
2017-10-29T16:56:55.743Z,5.70
2017-10-29T16:59:25.534Z,9.40
2017-10-29T17:01:55.417Z,8.53
2017-10-29T17:04:25.240Z,9.10
2017-10-29T17:06:55.109Z,5.40
2017-10-29T17:09:25.015Z,7.90
2017-10-29T17:11:54.885Z,9.40
2017-10-29T17:14:24.805Z,11.00
2017-10-29T17:16:54.712Z,9.30
2017-10-29T17:19:24.590Z,8.30
2017-10-29T17:21:54.423Z,8.97
2017-10-29T17:24:24.286Z,8.93
2017-10-29T17:26:54.098Z,10.13
2017-10-29T17:29:24.114Z,7.80
2017-10-29T17:31:53.963Z,7.07
2017-10-29T17:34:23.828Z,8.70
2017-10-29T17:36:53.658Z,8.60
2017-10-29T17:39:23.511Z,6.57
2017-10-29T17:41:53.372Z,8.87
2017-10-29T17:44:23.189Z,8.60
2017-10-29T17:46:53.028Z,7.80
2017-10-29T17:49:22.837Z,9.53
2017-10-29T17:51:52.689Z,10.30
2017-10-29T17:54:22.533Z,8.97
2017-10-29T17:56:52.371Z,8.93
2017-10-29T17:59:22.200Z,10.30
2017-10-29T18:01:52.140Z,9.47
2017-10-29T18:04:21.982Z,9.27
2017-10-29T18:06:51.855Z,8.40
2017-10-29T18:09:21.680Z,10.83
2017-10-29T18:11:51.539Z,8.13
2017-10-29T18:14:21.391Z,11.27
2017-10-29T18:16:51.312Z,8.20
2017-10-29T18:19:21.415Z,10.40
2017-10-29T18:21:51.288Z,10.17
2017-10-29T18:24:21.195Z,8.70
2017-10-29T18:26:51.038Z,11.63
2017-10-29T18:29:20.935Z,10.77
2017-10-29T18:31:50.758Z,10.23
2017-10-29T18:34:20.660Z,11.40
2017-10-29T18:36:50.538Z,10.40
2017-10-29T18:39:20.363Z,9.63
2017-10-29T18:41:50.222Z,8.17
2017-10-29T18:44:20.784Z,10.77
2017-10-29T18:46:50.634Z,11.00
2017-10-29T18:49:20.548Z,9.73
2017-10-29T18:51:50.465Z,9.70
2017-10-29T18:54:20.280Z,9.87
2017-10-29T18:56:50.164Z,8.80
2017-10-29T18:59:20.008Z,7.23
2017-10-29T19:01:49.851Z,8.03
2017-10-29T19:04:19.690Z,6.63
2017-10-29T19:06:49.527Z,8.50
2017-10-29T19:09:19.385Z,8.23
2017-10-29T19:11:49.319Z,9.27
2017-10-29T19:14:19.175Z,9.67
2017-10-29T19:16:49.002Z,8.63
2017-10-29T19:19:18.950Z,12.90
2017-10-29T19:21:48.791Z,11.27
2017-10-29T19:24:18.777Z,9.83
2017-10-29T19:26:48.697Z,12.33
2017-10-29T19:29:19.314Z,9.37
2017-10-29T19:31:49.151Z,10.53
2017-10-29T19:34:19.058Z,11.57
2017-10-29T19:36:48.915Z,10.90
2017-10-29T19:39:18.828Z,10.73
2017-10-29T19:41:48.737Z,10.77
2017-10-29T19:44:18.654Z,11.77
2017-10-29T19:46:48.501Z,9.27
2017-10-29T19:49:18.356Z,10.10
2017-10-29T19:51:48.262Z,10.20
2017-10-29T19:54:18.104Z,10.57
2017-10-29T19:56:47.952Z,9.70
2017-10-29T19:59:17.797Z,10.20
2017-10-29T20:01:47.732Z,11.20
2017-10-29T20:04:17.579Z,11.57
2017-10-29T20:06:47.483Z,10.07
2017-10-29T20:09:17.317Z,11.10
2017-10-29T20:11:47.215Z,12.97
2017-10-29T20:14:17.054Z,10.73
2017-10-29T20:16:46.911Z,9.77
2017-10-29T20:19:16.785Z,9.93
2017-10-29T20:21:46.615Z,9.10
2017-10-29T20:24:16.491Z,10.27
2017-10-29T20:26:46.335Z,8.90
2017-10-29T20:29:16.210Z,10.07
2017-10-29T20:31:46.068Z,8.57
2017-10-29T20:34:15.945Z,7.40
2017-10-29T20:36:45.814Z,10.30
2017-10-29T20:39:15.692Z,11.27
2017-10-29T20:41:45.537Z,8.63
2017-10-29T20:44:15.388Z,8.90
2017-10-29T20:46:45.226Z,8.60
2017-10-29T20:49:15.079Z,10.20
2017-10-29T20:51:44.910Z,11.67
2017-10-29T20:54:14.790Z,9.37
2017-10-29T20:56:44.632Z,10.30
2017-10-29T20:59:14.532Z,10.40
2017-10-29T21:01:44.416Z,10.23
2017-10-29T21:04:14.293Z,9.47
2017-10-29T21:06:44.131Z,7.97
2017-10-29T21:09:13.965Z,10.03
2017-10-29T21:11:43.829Z,10.37
2017-10-29T21:14:13.651Z,8.57
2017-10-29T21:16:43.514Z,9.60
2017-10-29T21:19:13.343Z,10.43
2017-10-29T21:21:43.244Z,9.37
2017-10-29T21:24:13.083Z,10.20
2017-10-29T21:26:42.922Z,9.93
2017-10-29T21:29:13.592Z,10.27
2017-10-29T21:31:43.455Z,11.20
2017-10-29T21:34:13.288Z,10.00
2017-10-29T21:36:43.141Z,12.07
2017-10-29T21:39:12.997Z,8.27
2017-10-29T21:41:42.923Z,8.73
2017-10-29T21:44:12.735Z,8.10
2017-10-29T21:46:42.587Z,8.40
2017-10-29T21:49:12.436Z,9.40
2017-10-29T21:51:42.297Z,9.00
2017-10-29T21:54:12.168Z,10.93
2017-10-29T21:56:42.045Z,8.33
2017-10-29T21:59:11.913Z,11.33
2017-10-29T22:01:41.738Z,8.70
2017-10-29T22:04:11.590Z,12.10
2017-10-29T22:06:41.440Z,9.20
2017-10-29T22:09:11.289Z,8.47
2017-10-29T22:11:41.111Z,9.03
2017-10-29T22:14:10.955Z,9.20
2017-10-29T22:16:40.771Z,7.47
2017-10-29T22:19:10.639Z,7.87
2017-10-29T22:21:40.449Z,8.70
2017-10-29T22:24:10.309Z,7.37
2017-10-29T22:26:40.122Z,8.73
2017-10-29T22:29:09.998Z,6.80
2017-10-29T22:31:39.847Z,10.13
2017-10-29T22:34:09.711Z,8.93
2017-10-29T22:36:39.575Z,10.37
2017-10-29T22:39:09.438Z,8.60
2017-10-29T22:41:39.291Z,9.70
2017-10-29T22:44:09.126Z,9.57
2017-10-29T22:46:38.975Z,8.63
2017-10-29T22:49:08.830Z,9.10
2017-10-29T22:51:38.682Z,9.70
2017-10-29T22:54:08.506Z,8.50
2017-10-29T22:56:38.411Z,10.10
2017-10-29T22:59:08.223Z,8.50
2017-10-29T23:01:38.063Z,7.63
2017-10-29T23:04:07.903Z,8.27
2017-10-29T23:06:43.745Z,8.90
2017-10-29T23:09:19.550Z,8.13
2017-10-29T23:11:49.411Z,8.83
2017-10-29T23:14:19.233Z,8.03
2017-10-29T23:16:49.100Z,11.03
2017-10-29T23:19:18.932Z,8.73
2017-10-29T23:21:48.829Z,5.60
2017-10-29T23:24:18.656Z,8.47
2017-10-29T23:26:48.495Z,9.53
2017-10-29T23:29:18.342Z,7.20
2017-10-29T23:31:48.725Z,8.10
2017-10-29T23:34:18.562Z,7.17
2017-10-29T23:36:48.403Z,7.80
2017-10-29T23:39:18.241Z,9.77
2017-10-29T23:41:48.232Z,7.67
2017-10-29T23:44:18.086Z,9.63
2017-10-29T23:46:47.934Z,8.87
2017-10-29T23:49:17.852Z,9.67
2017-10-29T23:51:47.754Z,6.87
2017-10-29T23:54:17.632Z,5.97
2017-10-29T23:56:47.460Z,7.43
2017-10-29T23:59:17.322Z,7.73
